Time;durP1;ratioP1;P1;durP2;ratioP2;P2;SDS_P1;SDS_P2;PMS_P1;PMS_P2;Temp;Humidity;BMP_temperature;BMP_pressure;BME280_temperature;BME280_humidity;BME280_pressure;Samples;Min_cycle;Max_cycle;Signal;HPM_P1;HPM_P2
2023/09/23 00:00:56;;;;;;;2.85;1.67;;;;;;;12.85;94.80;100809.63;5034829;27;100980;-27
2023/09/23 00:03:24;;;;;;;2.78;1.85;;;;;;;12.86;95.04;100814.94;5034478;27;96942;-27
2023/09/23 00:05:50;;;;;;;3.40;1.85;;;;;;;12.89;94.97;100824.72;5052789;27;96905;-27
2023/09/23 00:08:18;;;;;;;3.28;2.00;;;;;;;12.87;95.01;100824.84;5033962;27;101083;-28
2023/09/23 00:10:44;;;;;;;2.33;1.63;;;;;;;12.87;94.90;100823.97;5052642;27;97908;-27
2023/09/23 00:13:09;;;;;;;2.80;1.95;;;;;;;12.84;95.12;100811.47;5034449;27;96563;-28
2023/09/23 00:15:35;;;;;;;3.22;2.03;;;;;;;12.83;95.00;100814.31;5052732;27;96853;-27
2023/09/23 00:18:02;;;;;;;3.70;2.38;;;;;;;12.82;95.20;100818.84;5052722;27;97961;-27
2023/09/23 00:20:27;;;;;;;2.67;1.90;;;;;;;12.75;95.23;100807.56;5052505;27;97862;-27
2023/09/23 00:22:52;;;;;;;4.03;2.35;;;;;;;12.82;95.02;100820.72;5052465;27;96629;-28
2023/09/23 00:25:18;;;;;;;4.90;2.63;;;;;;;12.80;94.72;100822.66;5053053;27;96819;-28
2023/09/23 00:27:45;;;;;;;4.43;2.33;;;;;;;12.75;94.93;100826.59;5052268;27;99327;-27
2023/09/23 00:30:12;;;;;;;3.75;2.55;;;;;;;12.73;95.40;100820.41;5034281;27;101055;-27
2023/09/23 00:32:39;;;;;;;3.42;2.25;;;;;;;12.72;95.34;100825.94;5033649;27;97360;-26
2023/09/23 00:35:06;;;;;;;5.57;3.08;;;;;;;12.74;95.01;100822.13;5033985;27;97484;-27
2023/09/23 00:37:32;;;;;;;6.25;3.10;;;;;;;12.72;95.30;100815.06;5033966;27;99008;-26
2023/09/23 00:39:57;;;;;;;6.30;3.65;;;;;;;12.73;95.07;100819.53;5033962;27;100420;-27
2023/09/23 00:42:23;;;;;;;5.57;3.28;;;;;;;12.65;95.40;100814.63;5052303;27;97129;-27
2023/09/23 00:44:50;;;;;;;7.03;3.33;;;;;;;12.67;95.55;100822.69;5051987;27;96807;-27
2023/09/23 00:47:18;;;;;;;5.90;3.58;;;;;;;12.62;95.56;100831.16;5034031;27;99232;-26
2023/09/23 00:49:43;;;;;;;8.20;3.40;;;;;;;12.65;96.00;100836.38;5052944;27;97369;-27
2023/09/23 00:52:09;;;;;;;5.63;3.13;;;;;;;12.58;96.35;100842.34;5033816;27;96623;-27
2023/09/23 00:54:36;;;;;;;5.43;3.28;;;;;;;12.52;95.60;100830.06;5034004;27;96836;-28
2023/09/23 00:57:06;;;;;;;5.55;2.60;;;;;;;12.46;95.80;100833.19;5033013;27;101191;-27
2023/09/23 00:59:35;;;;;;;5.22;3.05;;;;;;;12.50;95.98;100851.03;5033818;27;100868;-27
2023/09/23 01:02:02;;;;;;;6.43;3.08;;;;;;;12.40;96.52;100850.81;5033734;27;96768;-28
2023/09/23 01:04:28;;;;;;;6.53;3.53;;;;;;;12.44;96.96;100852.34;5033535;27;97622;-28
2023/09/23 01:06:53;;;;;;;8.50;3.45;;;;;;;12.50;96.91;100870.91;5051741;27;99082;-26
2023/09/23 01:09:21;;;;;;;3.92;2.92;;;;;;;12.52;96.58;100874.41;5051793;27;99173;-26
2023/09/23 01:11:49;;;;;;;4.72;2.78;;;;;;;12.58;96.65;100873.09;5033629;27;96560;-27
2023/09/23 01:14:15;;;;;;;5.68;3.45;;;;;;;12.56;96.65;100866.94;5052394;27;96786;-28
2023/09/23 01:16:41;;;;;;;4.35;2.70;;;;;;;12.56;96.85;100868.75;5051941;27;97921;-27
2023/09/23 01:19:06;;;;;;;5.25;2.60;;;;;;;12.60;96.58;100867.56;5051643;27;99302;-27
2023/09/23 01:21:33;;;;;;;5.18;2.63;;;;;;;12.63;96.70;100870.06;5051526;27;96607;-27
2023/09/23 01:23:58;;;;;;;5.97;2.95;;;;;;;12.68;96.51;100881.47;5033565;27;96916;-28
2023/09/23 01:26:24;;;;;;;4.57;2.63;;;;;;;12.66;96.96;100891.59;5051740;27;97480;-27
2023/09/23 01:28:49;;;;;;;4.30;2.65;;;;;;;12.62;96.79;100868.34;5051471;27;99348;-27
2023/09/23 01:31:15;;;;;;;3.55;2.28;;;;;;;12.56;97.00;100866.94;5051738;27;96586;-27
2023/09/23 01:33:40;;;;;;;4.07;2.28;;;;;;;12.55;97.78;100878.75;5051626;27;96743;-27
2023/09/23 01:36:05;;;;;;;4.03;2.55;;;;;;;12.48;98.36;100874.72;5054787;27;98083;-27
2023/09/23 01:38:32;;;;;;;4.32;2.35;;;;;;;12.54;98.56;100875.19;5055777;27;97882;-27
2023/09/23 01:40:57;;;;;;;2.60;1.75;;;;;;;12.56;98.63;100882.34;5036762;27;96751;-27
2023/09/23 01:43:23;;;;;;;4.70;2.50;;;;;;;12.54;98.47;100874.31;5055197;27;96781;-27
2023/09/23 01:45:48;;;;;;;3.65;2.17;;;;;;;12.49;98.60;100868.34;5053929;27;97968;-26
2023/09/23 01:48:15;;;;;;;2.95;1.98;;;;;;;12.57;98.84;100873.22;5055038;27;97405;-27
2023/09/23 01:50:41;;;;;;;3.05;1.77;;;;;;;12.57;98.27;100865.94;5036798;27;96551;-27
2023/09/23 01:53:08;;;;;;;4.07;1.73;;;;;;;12.63;97.80;100876.38;5036662;27;96825;-27
2023/09/23 01:55:34;;;;;;;3.42;2.15;;;;;;;12.65;98.20;100877.13;5036252;27;101050;-27
2023/09/23 01:58:00;;;;;;;2.80;1.85;;;;;;;12.66;98.73;100880.75;5036445;27;101463;-28
2023/09/23 02:00:26;;;;;;;2.75;1.67;;;;;;;12.63;98.82;100878.22;5036703;27;96651;-27
2023/09/23 02:02:57;;;;;;;4.40;1.90;;;;;;;12.63;98.57;100872.78;5055081;27;96568;-27
2023/09/23 02:05:24;;;;;;;5.88;2.00;;;;;;;12.66;98.49;100887.03;5054665;27;97986;-27
2023/09/23 02:07:50;;;;;;;3.25;1.77;;;;;;;12.61;98.47;100883.78;5036286;27;101150;-27
2023/09/23 02:10:21;;;;;;;2.28;1.40;;;;;;;12.72;99.04;100902.03;5054048;27;96546;-27
2023/09/23 02:12:47;;;;;;;3.60;1.52;;;;;;;12.71;98.06;100895.75;5054700;27;96550;-28
2023/09/23 02:15:16;;;;;;;2.90;1.55;;;;;;;12.76;98.33;100903.56;5036248;27;98886;-27
2023/09/23 02:17:42;;;;;;;2.22;1.42;;;;;;;12.79;98.85;100911.50;5054444;27;97197;-27
2023/09/23 02:20:11;;;;;;;3.33;1.85;;;;;;;12.77;98.62;100909.88;5036313;27;96997;-27
2023/09/23 02:22:37;;;;;;;3.75;1.58;;;;;;;12.81;99.19;100922.28;5054462;27;96814;-27
2023/09/23 02:25:07;;;;;;;2.95;1.48;;;;;;;12.81;98.72;100901.41;5054284;27;99246;-27
2023/09/23 02:27:33;;;;;;;2.72;1.35;;;;;;;12.75;98.33;100900.00;5036402;27;101304;-27
2023/09/23 02:30:03;;;;;;;2.67;1.50;;;;;;;12.78;98.56;100907.06;5054596;27;96800;-27
2023/09/23 02:32:29;;;;;;;2.30;1.42;;;;;;;12.75;98.55;100905.44;5036202;27;96682;-27
2023/09/23 02:34:55;;;;;;;2.80;1.90;;;;;;;12.78;99.44;100911.63;5053189;27;99471;-27
2023/09/23 02:37:20;;;;;;;3.88;1.65;;;;;;;12.80;98.65;100920.53;5054374;27;97789;-27
2023/09/23 02:39:46;;;;;;;2.28;1.60;;;;;;;12.77;99.25;100923.47;5054455;27;96604;-27
2023/09/23 02:42:12;;;;;;;3.33;1.38;;;;;;;12.80;98.84;100920.53;5054468;27;96820;-27
2023/09/23 02:44:38;;;;;;;2.47;1.52;;;;;;;12.79;98.87;100913.34;5053627;27;99477;-27
2023/09/23 02:47:04;;;;;;;3.15;1.77;;;;;;;12.76;99.38;100914.44;5035383;27;100717;-27
2023/09/23 02:49:30;;;;;;;2.75;1.13;;;;;;;12.76;99.77;100925.31;5054311;27;96730;-27
2023/09/23 02:51:55;;;;;;;2.33;1.33;;;;;;;12.76;100.00;100919.88;5036028;27;96855;-26
2023/09/23 02:54:20;;;;;;;2.35;1.27;;;;;;;12.73;100.00;100917.38;5054046;27;97549;-27
2023/09/23 02:56:50;;;;;;;3.60;1.23;;;;;;;12.74;100.00;100921.84;5053932;27;97805;-27
2023/09/23 02:59:21;;;;;;;7.45;1.50;;;;;;;12.69;100.00;100911.28;5035276;27;97025;-27
2023/09/23 03:01:51;;;;;;;2.10;1.37;;;;;;;12.74;100.00;100925.41;5035771;27;96729;-27
2023/09/23 03:04:19;;;;;;;1.90;1.17;;;;;;;12.75;100.00;100929.00;5035189;27;100906;-26
2023/09/23 03:06:50;;;;;;;2.25;1.27;;;;;;;12.72;100.00;100932.78;5035316;27;100915;-28
2023/09/23 03:09:20;;;;;;;3.53;1.23;;;;;;;12.74;100.00;100935.41;5035337;27;96637;-27
2023/09/23 03:11:56;;;;;;;1.85;1.20;;;;;;;12.72;100.00;100931.94;5035463;27;96873;-28
2023/09/23 03:14:36;;;;;;;3.13;1.15;;;;;;;12.66;100.00;100930.53;5035168;27;100979;-28
2023/09/23 03:17:07;;;;;;;2.70;1.27;;;;;;;12.70;100.00;100942.03;5053814;27;99431;-27
2023/09/23 03:19:33;;;;;;;1.75;1.10;;;;;;;12.70;100.00;100953.81;5035262;27;96832;-27
2023/09/23 03:21:59;;;;;;;2.58;1.25;;;;;;;12.70;100.00;100951.09;5053836;27;96838;-27
2023/09/23 03:24:26;;;;;;;2.15;1.42;;;;;;;12.75;100.00;100972.47;5034508;27;101042;-27
2023/09/23 03:26:58;;;;;;;2.13;1.33;;;;;;;12.79;100.00;100971.31;5035086;27;100966;-27
2023/09/23 03:29:26;;;;;;;2.47;1.80;;;;;;;12.83;99.89;100969.25;5035135;27;96660;-28
2023/09/23 03:31:52;;;;;;;2.42;1.33;;;;;;;12.77;100.00;100956.94;5035101;27;96826;-27
2023/09/23 03:34:17;;;;;;;3.40;1.45;;;;;;;12.82;99.88;100962.94;5053245;27;97730;-27
2023/09/23 03:36:44;;;;;;;5.20;1.33;;;;;;;12.80;100.00;100954.03;5053168;27;99290;-27
2023/09/23 03:39:10;;;;;;;1.98;1.20;;;;;;;12.78;100.00;100952.41;5034914;27;96736;-27
2023/09/23 03:41:37;;;;;;;2.47;1.50;;;;;;;12.79;100.00;100955.00;5035080;27;96863;-27
2023/09/23 03:44:07;;;;;;;2.72;1.13;;;;;;;12.83;100.00;100959.25;5034606;27;101387;-27
2023/09/23 03:46:33;;;;;;;2.80;1.30;;;;;;;12.82;100.00;100960.22;5034167;27;100918;-27
2023/09/23 03:49:00;;;;;;;1.85;1.23;;;;;;;12.79;100.00;100960.44;5034290;27;96901;-27
2023/09/23 03:51:25;;;;;;;4.18;1.05;;;;;;;12.82;99.92;100964.78;5053209;27;96828;-27
2023/09/23 03:53:53;;;;;;;2.10;1.15;;;;;;;12.83;99.16;100964.69;5053132;27;97349;-27
2023/09/23 03:56:27;;;;;;;1.95;0.80;;;;;;;12.86;99.21;100978.06;5052729;27;97805;-27
2023/09/23 03:58:55;;;;;;;2.05;0.82;;;;;;;12.80;99.28;100964.91;5034169;27;96701;-27
2023/09/23 04:01:23;;;;;;;1.83;1.10;;;;;;;12.82;99.21;100973.81;5034616;27;96828;-28
2023/09/23 04:03:50;;;;;;;3.13;0.98;;;;;;;12.83;99.38;100974.69;5034434;27;100829;-27
2023/09/23 04:06:16;;;;;;;5.07;1.00;;;;;;;12.86;99.73;100980.78;5034696;27;100950;-27
2023/09/23 04:08:41;;;;;;;2.53;1.00;;;;;;;12.84;99.32;100984.59;5052410;27;96577;-27
2023/09/23 04:11:08;;;;;;;1.08;0.70;;;;;;;12.83;99.90;100977.41;5052995;27;96921;-28
2023/09/23 04:13:33;;;;;;;1.92;1.13;;;;;;;12.80;100.00;100983.03;5052102;27;99352;-27
2023/09/23 04:16:00;;;;;;;1.48;1.10;;;;;;;12.81;99.68;100979.38;5052723;27;97787;-26
2023/09/23 04:18:27;;;;;;;1.65;1.13;;;;;;;12.80;99.78;100983.94;5052848;27;96546;-27
2023/09/23 04:20:53;;;;;;;3.47;0.82;;;;;;;12.86;100.00;100985.34;5034314;27;96719;-27
2023/09/23 04:23:18;;;;;;;3.92;1.20;;;;;;;12.81;99.80;100990.25;5052279;27;97984;-28
2023/09/23 04:25:44;;;;;;;2.22;1.08;;;;;;;12.82;99.79;101000.13;5034250;27;99191;-28
2023/09/23 04:28:09;;;;;;;5.35;1.33;;;;;;;12.79;100.00;101000.34;5052537;27;96493;-27
2023/09/23 04:30:35;;;;;;;1.85;0.90;;;;;;;12.78;100.00;101004.06;5034970;27;96832;-28
2023/09/23 04:33:00;;;;;;;2.10;1.13;;;;;;;12.71;100.00;101007.19;5052302;27;98052;-27
2023/09/23 04:35:26;;;;;;;1.60;1.00;;;;;;;12.71;100.00;100999.03;5034012;27;101566;-27
2023/09/23 04:37:51;;;;;;;2.00;0.90;;;;;;;12.73;100.00;101012.50;5051985;27;96604;-28
2023/09/23 04:40:18;;;;;;;6.82;1.33;;;;;;;12.65;100.00;101014.88;5052633;27;96788;-27
2023/09/23 04:42:43;;;;;;;1.80;0.70;;;;;;;12.69;100.00;101028.16;5033867;27;100994;-27
2023/09/23 04:45:10;;;;;;;2.15;0.88;;;;;;;12.72;100.00;101027.94;5025092;28;101335;-27
2023/09/23 04:47:37;;;;;;;0.95;0.80;;;;;;;12.71;100.00;101031.63;5011953;28;96517;-27
2023/09/23 04:50:04;;;;;;;2.95;0.90;;;;;;;12.72;100.00;101035.22;5010714;28;96815;-27
2023/09/23 04:52:34;;;;;;;1.70;1.00;;;;;;;12.66;100.00;101022.94;5011497;28;97988;-27
2023/09/23 04:55:00;;;;;;;1.27;0.75;;;;;;;12.71;100.00;101038.94;5010756;28;99132;-27
2023/09/23 04:57:25;;;;;;;3.95;1.20;;;;;;;12.74;100.00;101042.28;5011898;28;96597;-28
2023/09/23 04:59:56;;;;;;;0.98;0.70;;;;;;;12.71;100.00;101042.50;5011950;28;96851;-27
2023/09/23 05:02:22;;;;;;;1.77;0.80;;;;;;;12.70;100.00;101042.59;5011551;28;97622;-27
2023/09/23 05:04:48;;;;;;;1.05;0.70;;;;;;;12.68;100.00;101050.88;5011428;28;97781;-27
2023/09/23 05:07:14;;;;;;;1.13;0.77;;;;;;;12.67;100.00;101056.41;5011545;28;96689;-27
2023/09/23 05:09:44;;;;;;;3.78;1.25;;;;;;;12.69;100.00;101062.63;5012439;28;96819;-27
2023/09/23 05:12:09;;;;;;;5.70;1.25;;;;;;;12.61;100.00;101052.25;5013872;28;102090;-27
2023/09/23 05:14:35;;;;;;;1.45;0.90;;;;;;;12.63;100.00;101057.56;5013523;28;100843;-27
2023/09/23 05:17:04;;;;;;;2.38;1.10;;;;;;;12.69;100.00;101068.91;5013724;28;96626;-27
2023/09/23 05:19:31;;;;;;;1.10;0.60;;;;;;;12.68;100.00;101069.00;5015328;28;96786;-28
2023/09/23 05:21:57;;;;;;;2.22;0.77;;;;;;;12.63;100.00;101066.63;5013628;28;101004;-27
2023/09/23 05:24:22;;;;;;;1.25;0.90;;;;;;;12.61;100.00;101068.56;5013557;28;101001;-28
2023/09/23 05:26:51;;;;;;;1.60;0.85;;;;;;;12.63;100.00;101072.06;5014439;28;99655;-27
2023/09/23 05:29:17;;;;;;;3.25;1.13;;;;;;;12.65;100.00;101080.94;5013492;28;96861;-27
2023/09/23 05:31:42;;;;;;;3.35;0.90;;;;;;;12.65;100.00;101082.81;5014600;28;98927;-27
2023/09/23 05:34:08;;;;;;;1.52;0.60;;;;;;;12.64;100.00;101081.94;5014319;28;97900;-27
2023/09/23 05:36:34;;;;;;;1.63;0.93;;;;;;;12.66;100.00;101090.88;5013581;28;96700;-27
2023/09/23 05:39:00;;;;;;;5.05;0.95;;;;;;;12.67;100.00;101089.03;5014934;28;96785;-27
2023/09/23 05:41:26;;;;;;;2.60;0.88;;;;;;;12.68;100.00;101093.47;5013402;28;99576;-27
2023/09/23 05:43:54;;;;;;;1.95;0.82;;;;;;;12.65;100.00;101099.97;5015002;28;97352;-27
2023/09/23 05:46:19;;;;;;;4.30;1.00;;;;;;;12.70;100.00;101113.28;5013045;28;96762;-27
2023/09/23 05:48:51;;;;;;;0.95;0.85;;;;;;;12.71;100.00;101125.91;5014284;28;96982;-27
2023/09/23 05:51:16;;;;;;;2.08;0.93;;;;;;;12.69;100.00;101130.56;5014268;28;97450;-27
2023/09/23 05:53:42;;;;;;;3.00;1.02;;;;;;;12.67;100.00;101130.66;5014246;28;99115;-27
2023/09/23 05:56:08;;;;;;;2.70;1.08;;;;;;;12.70;100.00;101127.75;5013136;28;96786;-27
2023/09/23 05:58:34;;;;;;;1.40;1.10;;;;;;;12.75;100.00;101135.56;5014400;28;96825;-27
2023/09/23 06:00:59;;;;;;;1.85;1.10;;;;;;;12.73;100.00;101134.84;5014408;28;98487;-27
2023/09/23 06:03:24;;;;;;;2.97;0.95;;;;;;;12.71;100.00;101129.50;5014297;28;97491;-27
2023/09/23 06:05:50;;;;;;;5.13;1.10;;;;;;;12.76;100.00;101126.47;5014431;28;97004;-27
2023/09/23 06:08:15;;;;;;;4.78;0.80;;;;;;;12.75;100.00;101131.03;5014872;28;96867;-27
2023/09/23 06:10:41;;;;;;;2.20;1.00;;;;;;;12.70;100.00;101129.56;5014162;28;99316;-28
2023/09/23 06:13:07;;;;;;;3.40;0.90;;;;;;;12.72;100.00;101141.22;5013894;28;98746;-27
2023/09/23 06:15:33;;;;;;;0.98;0.60;;;;;;;12.72;100.00;101138.50;5012311;28;97417;-27
2023/09/23 06:17:59;;;;;;;0.90;0.50;;;;;;;12.69;100.00;101149.59;5013982;28;96830;-27
2023/09/23 06:20:24;;;;;;;2.20;0.80;;;;;;;12.74;100.00;101164.59;5013374;28;99201;-27
2023/09/23 06:22:50;;;;;;;3.30;0.93;;;;;;;12.79;100.00;101174.31;5014041;28;97771;-27
2023/09/23 06:25:15;;;;;;;4.70;0.90;;;;;;;12.83;100.00;101175.88;5014003;28;96518;-27
2023/09/23 06:27:42;;;;;;;1.48;0.57;;;;;;;12.80;100.00;101170.63;5014212;28;96946;-27
2023/09/23 06:30:08;;;;;;;1.50;0.80;;;;;;;12.81;100.00;101175.09;5012495;28;101061;-27
2023/09/23 06:32:33;;;;;;;0.43;0.43;;;;;;;12.88;100.00;101187.31;5013649;28;100051;-27
2023/09/23 06:34:59;;;;;;;1.88;0.55;;;;;;;12.91;100.00;101184.38;5013903;28;96652;-27
2023/09/23 06:37:24;;;;;;;1.17;0.65;;;;;;;12.98;100.00;101193.00;5013854;28;96926;-27
2023/09/23 06:39:49;;;;;;;5.07;0.93;;;;;;;13.04;100.00;101188.03;5013296;28;97939;-27
2023/09/23 06:42:15;;;;;;;0.90;0.50;;;;;;;13.09;100.00;101199.47;5013670;28;99553;-26
2023/09/23 06:44:42;;;;;;;5.07;0.70;;;;;;;13.16;100.00;101203.53;5013873;27;96764;-27
2023/09/23 06:47:07;;;;;;;0.60;0.32;;;;;;;13.16;100.00;101205.41;5054261;27;96789;-27
2023/09/23 06:49:32;;;;;;;1.90;0.80;;;;;;;13.18;100.00;101204.31;5054171;27;97971;-27
2023/09/23 06:51:58;;;;;;;1.48;0.65;;;;;;;13.20;100.00;101190.59;5054092;27;97397;-27
2023/09/23 06:54:23;;;;;;;2.47;0.60;;;;;;;13.20;100.00;101189.72;5054153;27;96687;-27
2023/09/23 06:56:48;;;;;;;1.67;0.55;;;;;;;13.24;100.00;101200.31;5054521;27;96788;-27
2023/09/23 06:59:14;;;;;;;0.73;0.25;;;;;;;13.23;100.00;101197.66;5054017;27;97471;-27
2023/09/23 07:01:39;;;;;;;1.73;0.68;;;;;;;13.22;100.00;101199.53;5053874;27;97360;-27
2023/09/23 07:04:06;;;;;;;2.30;0.50;;;;;;;13.25;100.00;101201.16;5053489;27;96647;-27
2023/09/23 07:06:31;;;;;;;1.13;0.40;;;;;;;13.25;100.00;101203.88;5053810;27;96906;-27
2023/09/23 07:08:56;;;;;;;1.92;0.68;;;;;;;13.28;100.00;101203.72;5053864;27;98233;-27
2023/09/23 07:11:23;;;;;;;2.20;0.80;;;;;;;13.45;100.00;101222.50;5053636;27;99124;-27
2023/09/23 07:13:48;;;;;;;3.13;0.80;;;;;;;13.59;100.00;101213.41;5035234;27;96634;-26
2023/09/23 07:16:14;;;;;;;0.63;0.55;;;;;;;13.75;100.00;101219.56;5053727;27;96792;-27
2023/09/23 07:18:40;;;;;;;2.08;0.65;;;;;;;13.81;100.00;101230.00;5035144;27;99077;-27
2023/09/23 07:21:05;;;;;;;0.82;0.55;;;;;;;13.88;100.00;101241.34;5053703;27;99092;-27
2023/09/23 07:23:31;;;;;;;0.32;0.30;;;;;;;13.87;100.00;101223.28;5053817;27;96630;-27
2023/09/23 07:25:56;;;;;;;2.85;0.88;;;;;;;13.93;99.81;101239.16;5053758;27;96836;-27
2023/09/23 07:28:22;;;;;;;1.45;0.70;;;;;;;13.91;100.00;101245.69;5052797;27;99662;-26
2023/09/23 07:30:47;;;;;;;0.38;0.35;;;;;;;13.82;100.00;101241.75;5052982;27;99157;-27
2023/09/23 07:33:12;;;;;;;1.60;0.60;;;;;;;13.77;100.00;101238.47;5052135;27;96813;-27
2023/09/23 07:35:38;;;;;;;1.48;0.60;;;;;;;13.77;100.00;101250.25;5053680;27;96873;-27
2023/09/23 07:38:03;;;;;;;2.63;0.65;;;;;;;13.79;100.00;101264.63;5053240;27;99225;-27
2023/09/23 07:40:30;;;;;;;0.80;0.50;;;;;;;13.79;100.00;101267.34;5053088;27;99163;-29
2023/09/23 07:42:56;;;;;;;0.43;0.38;;;;;;;13.75;100.00;101268.56;5034892;27;96621;-28
2023/09/23 07:45:21;;;;;;;1.38;0.63;;;;;;;13.78;100.00;101279.22;5034809;27;96870;-27
2023/09/23 07:47:47;;;;;;;3.30;0.60;;;;;;;13.76;100.00;101274.88;5053108;27;99346;-27
2023/09/23 07:50:12;;;;;;;1.95;0.45;;;;;;;13.78;100.00;101283.81;5053185;27;97843;-27
2023/09/23 07:52:38;;;;;;;2.05;0.50;;;;;;;13.81;100.00;101279.00;5052716;27;97130;-27
2023/09/23 07:55:04;;;;;;;1.42;0.70;;;;;;;13.92;100.00;101286.47;5053255;27;96915;-27
2023/09/23 07:57:30;;;;;;;1.40;0.60;;;;;;;14.13;100.00;101297.69;5034527;27;101105;-27
2023/09/23 07:59:56;;;;;;;0.88;0.47;;;;;;;14.28;100.00;101303.06;5052699;27;97267;-27
2023/09/23 08:02:21;;;;;;;5.30;0.68;;;;;;;14.39;100.00;101316.81;5053205;27;96529;-27
2023/09/23 08:04:46;;;;;;;1.13;0.57;;;;;;;14.46;99.83;101309.94;5052677;27;96919;-27
2023/09/23 08:07:12;;;;;;;0.95;0.55;;;;;;;14.47;99.97;101303.53;5052706;27;99614;-27
2023/09/23 08:09:37;;;;;;;1.85;0.57;;;;;;;14.55;99.87;101311.19;5053137;27;98644;-27
2023/09/23 08:12:03;;;;;;;0.90;0.57;;;;;;;14.68;99.33;101328.41;5034573;27;96580;-28
2023/09/23 08:14:29;;;;;;;2.50;0.57;;;;;;;14.68;98.75;101320.22;5052687;27;96839;-28
2023/09/23 08:16:54;;;;;;;1.60;0.50;;;;;;;14.73;99.01;101325.38;5051948;27;99424;-27
2023/09/23 08:19:20;;;;;;;0.80;0.60;;;;;;;14.78;99.07;101334.13;5052679;27;97893;-27
2023/09/23 08:21:45;;;;;;;1.02;0.50;;;;;;;14.78;98.75;101334.13;5053167;27;96661;-27
2023/09/23 08:24:11;;;;;;;1.83;0.50;;;;;;;14.69;98.96;101334.75;5052965;27;96660;-27
2023/09/23 08:26:37;;;;;;;1.35;0.75;;;;;;;14.64;99.41;101329.63;5052563;27;97372;-27
2023/09/23 08:29:02;;;;;;;0.73;0.45;;;;;;;14.92;99.65;101357.66;5052105;27;99376;-27
2023/09/23 08:31:28;;;;;;;1.05;0.57;;;;;;;14.98;98.38;101354.50;5052754;27;96584;-27
2023/09/23 08:33:53;;;;;;;0.80;0.60;;;;;;;14.99;98.32;101365.31;5052568;27;96965;-26
2023/09/23 08:36:19;;;;;;;0.95;0.55;;;;;;;15.16;98.12;101357.72;5052409;27;96742;-27
2023/09/23 08:38:45;;;;;;;2.42;0.80;;;;;;;15.35;97.56;101359.97;5052630;27;97371;-27
2023/09/23 08:41:15;;;;;;;0.88;0.55;;;;;;;15.44;96.69;101362.91;5033646;27;96496;-27
2023/09/23 08:43:42;;;;;;;0.90;0.63;;;;;;;15.58;96.00;101366.47;5033766;27;97222;-27
2023/09/23 08:46:09;;;;;;;1.70;0.52;;;;;;;15.74;96.46;101369.84;5051710;27;97450;-27
2023/09/23 08:48:35;;;;;;;0.90;0.32;;;;;;;15.79;95.40;101366.78;5033982;27;99810;-27
2023/09/23 08:51:02;;;;;;;2.40;0.70;;;;;;;15.79;94.77;101370.38;5052177;27;96533;-27
2023/09/23 08:53:31;;;;;;;2.10;0.70;;;;;;;15.92;94.20;101386.69;5033977;27;96857;-27
2023/09/23 08:55:56;;;;;;;1.20;0.60;;;;;;;16.08;94.40;101384.56;5033813;27;100909;-27
2023/09/23 08:58:21;;;;;;;1.33;0.63;;;;;;;16.20;92.78;101388.22;5052405;27;97955;-28
2023/09/23 09:00:47;;;;;;;2.13;0.90;;;;;;;16.17;92.75;101393.91;5052321;27;96617;-27
2023/09/23 09:03:13;;;;;;;0.98;0.60;;;;;;;16.08;92.20;101405.53;5052080;27;96722;-27
2023/09/23 09:05:39;;;;;;;1.10;0.43;;;;;;;16.21;92.38;101403.63;5051504;27;99429;-28
2023/09/23 09:08:06;;;;;;;2.55;0.80;;;;;;;16.29;92.68;101390.25;5033578;27;100779;-27
2023/09/23 09:10:32;;;;;;;3.20;0.63;;;;;;;16.41;92.26;101409.44;5033758;27;96784;-27
2023/09/23 09:13:00;;;;;;;1.60;0.50;;;;;;;16.27;91.31;101405.03;5051820;27;96826;-26
2023/09/23 09:15:26;;;;;;;1.38;0.60;;;;;;;16.21;91.30;101406.38;5033583;27;101277;-27
2023/09/23 09:17:51;;;;;;;1.50;0.52;;;;;;;16.23;90.36;101418.06;5052059;27;97800;-28
2023/09/23 09:20:16;;;;;;;2.92;0.70;;;;;;;16.33;89.28;101408.16;5052071;27;96558;-27
2023/09/23 09:22:44;;;;;;;2.08;0.57;;;;;;;16.57;89.02;101415.47;5052561;27;96760;-27
2023/09/23 09:25:10;;;;;;;0.40;0.32;;;;;;;16.80;87.64;101421.88;5051669;27;99445;-27
2023/09/23 09:27:35;;;;;;;0.60;0.50;;;;;;;17.05;87.37;101415.34;5033180;27;99115;-27
2023/09/23 09:30:01;;;;;;;0.55;0.38;;;;;;;17.20;85.46;101414.09;5051588;27;96717;-27
2023/09/23 09:32:30;;;;;;;1.23;0.65;;;;;;;17.25;85.58;101424.69;5051887;27;96800;-28
2023/09/23 09:35:00;;;;;;;1.30;0.63;;;;;;;16.98;85.24;101423.16;5033061;27;101287;-27
2023/09/23 09:37:27;;;;;;;1.80;0.47;;;;;;;16.81;86.10;101434.59;5051513;27;99226;-27
2023/09/23 09:39:56;;;;;;;1.13;0.60;;;;;;;16.62;85.93;101445.19;5051747;27;96559;-27
2023/09/23 09:42:33;;;;;;;2.30;0.70;;;;;;;16.42;86.29;101450.34;5033428;27;96876;-27
2023/09/23 09:44:59;;;;;;;4.38;0.68;;;;;;;16.32;86.84;101439.22;5051095;27;98089;-27
2023/09/23 09:47:27;;;;;;;3.13;0.70;;;;;;;16.49;87.48;101443.41;5051966;27;97545;-27
2023/09/23 09:49:54;;;;;;;1.13;0.73;;;;;;;16.88;84.83;101443.19;5033226;27;96675;-27
2023/09/23 09:52:26;;;;;;;1.77;0.73;;;;;;;17.20;85.19;101446.09;5051517;27;96776;-27
2023/09/23 09:54:53;;;;;;;;;;;;;;;17.53;83.15;101442.50;5033044;27;100885;-27
2023/09/23 09:57:22;;;;;;;1.42;0.85;;;;;;;17.88;82.30;101444.25;5054537;27;99091;-27
2023/09/23 09:59:51;;;;;;;1.92;0.50;;;;;;;18.10;81.20;101440.56;5036742;27;96652;-27
2023/09/23 10:02:17;;;;;;;0.75;0.45;;;;;;;18.17;79.19;101438.19;5036491;27;96851;-27
2023/09/23 10:04:46;;;;;;;2.15;0.50;;;;;;;18.04;79.84;101438.34;5054595;27;98004;-27
2023/09/23 10:07:12;;;;;;;0.55;0.47;;;;;;;18.11;80.35;101452.41;5054447;27;99644;-28
2023/09/23 10:09:40;;;;;;;0.63;0.40;;;;;;;18.38;79.47;101449.22;5054879;27;96546;-27
2023/09/23 10:12:07;;;;;;;3.30;0.70;;;;;;;18.61;78.68;101455.47;5055164;27;97156;-27
2023/09/23 10:14:33;;;;;;;0.70;0.40;;;;;;;18.51;76.04;101452.66;5036189;27;100804;-27
2023/09/23 10:17:02;;;;;;;1.92;0.65;;;;;;;18.42;75.62;101453.44;5036242;27;100918;-27
2023/09/23 10:19:31;;;;;;;1.08;0.60;;;;;;;18.63;77.08;101468.06;5053912;27;96712;-28
2023/09/23 10:22:16;;;;;;;2.53;0.40;;;;;;;18.98;76.89;101457.81;5036159;27;96967;-27
2023/09/23 10:24:42;;;;;;;1.23;0.47;;;;;;;19.17;73.70;101455.19;5054776;27;97536;-28
2023/09/23 10:27:12;;;;;;;0.93;0.50;;;;;;;19.06;74.99;101461.59;5054362;27;99371;-27
2023/09/23 10:29:46;;;;;;;0.40;0.30;;;;;;;18.80;73.64;101463.00;5054557;27;96585;-28
2023/09/23 10:32:16;;;;;;;0.88;0.40;;;;;;;18.98;73.68;101466.91;5054321;27;96865;-27
2023/09/23 10:35:00;;;;;;;1.25;0.65;;;;;;;18.85;75.14;101480.84;5035684;27;101005;-27
2023/09/23 10:37:30;;;;;;;2.95;0.47;;;;;;;18.60;76.88;101487.53;5036279;27;100703;-27
2023/09/23 10:40:00;;;;;;;0.40;0.40;;;;;;;18.45;77.66;101497.09;5036074;27;96656;-27
2023/09/23 10:42:25;;;;;;;0.82;0.57;;;;;;;18.19;77.48;101494.66;5035727;27;96927;-27
2023/09/23 10:44:57;;;;;;;1.95;0.75;;;;;;;18.08;78.35;101499.28;5053404;27;97940;-27
2023/09/23 10:47:22;;;;;;;;;;;;;;;17.85;79.46;101515.75;5036205;27;101049;-27
2023/09/23 10:49:48;;;;;;;0.57;0.33;;;;;;;17.57;79.95;101511.63;5054388;27;96656;-28
2023/09/23 10:52:14;;;;;;;2.70;0.60;;;;;;;17.46;81.69;101528.03;5054426;27;96708;-27
2023/09/23 10:54:40;;;;;;;1.15;0.43;;;;;;;17.33;82.22;101534.50;5053650;27;99427;-28
2023/09/23 10:57:05;;;;;;;2.10;0.75;;;;;;;17.18;82.78;101542.06;5053738;27;99502;-27
2023/09/23 10:59:31;;;;;;;1.08;0.43;;;;;;;17.00;83.84;101520.72;5053828;27;96609;-27
2023/09/23 11:01:56;;;;;;;1.20;0.50;;;;;;;17.01;84.32;101547.09;5036050;27;96920;-27
2023/09/23 11:04:23;;;;;;;1.40;0.60;;;;;;;16.96;84.18;101553.78;5053490;27;99209;-27
2023/09/23 11:06:48;;;;;;;1.35;0.40;;;;;;;16.90;84.29;101554.28;5053678;27;97295;-27
2023/09/23 11:09:14;;;;;;;0.98;0.50;;;;;;;16.86;84.26;101560.09;5053621;27;96690;-27
2023/09/23 11:11:40;;;;;;;1.40;0.50;;;;;;;16.78;84.78;101568.88;5053822;27;96766;-28
2023/09/23 11:14:15;;;;;;;1.08;0.45;;;;;;;16.74;85.07;101579.16;5053634;27;97925;-27
2023/09/23 11:16:51;;;;;;;1.83;0.47;;;;;;;16.60;85.16;101576.59;5053507;27;99128;-27
2023/09/23 11:19:17;;;;;;;0.82;0.45;;;;;;;16.53;85.17;101578.91;5035484;27;96889;-26